Time;durP1;ratioP1;P1;durP2;ratioP2;P2;SDS_P1;SDS_P2;PMS_P1;PMS_P2;Temp;Humidity;BMP_temperature;BMP_pressure;BME280_temperature;BME280_humidity;BME280_pressure;Samples;Min_cycle;Max_cycle;Signal;HPM_P1;HPM_P2
2023/05/20 00:00:57;;;;;;;3.67;3.20;;;13.00;99.90;;;;;;5018673;28;20242;-68
2023/05/20 00:03:22;;;;;;;5.90;3.43;;;13.10;99.90;;;;;;5024011;28;20202;-67
2023/05/20 00:05:48;;;;;;;6.13;3.53;;;13.20;99.90;;;;;;5029685;28;20628;-67
2023/05/20 00:08:13;;;;;;;5.50;3.23;;;13.10;99.90;;;;;;5027256;28;20202;-66
2023/05/20 00:10:40;;;;;;;3.27;2.77;;;12.90;99.90;;;;;;5029183;28;20548;-67
2023/05/20 00:13:06;;;;;;;10.23;3.53;;;13.00;99.90;;;;;;5026110;28;20216;-67
2023/05/20 00:15:32;;;;;;;5.23;2.90;;;12.90;99.90;;;;;;5022450;28;20256;-67
2023/05/20 00:17:59;;;;;;;4.07;3.03;;;12.90;99.90;;;;;;5028505;28;20650;-66
2023/05/20 00:20:25;;;;;;;6.87;3.50;;;13.00;99.90;;;;;;5028644;28;20208;-67
2023/05/20 00:22:50;;;;;;;7.10;3.00;;;12.90;99.90;;;;;;5028961;28;20258;-67
2023/05/20 00:25:16;;;;;;;2.97;2.77;;;12.90;99.90;;;;;;5022855;28;20212;-67
2023/05/20 00:27:41;;;;;;;5.10;3.47;;;12.90;99.90;;;;;;5020541;28;20293;-67
2023/05/20 00:30:08;;;;;;;5.70;3.20;;;12.90;99.90;;;;;;5022965;28;20240;-67
2023/05/20 00:32:34;;;;;;;6.10;3.07;;;12.80;99.90;;;;;;5022260;28;20211;-66
2023/05/20 00:35:00;;;;;;;3.97;2.70;;;12.90;99.90;;;;;;5022616;28;20626;-67
2023/05/20 00:37:26;;;;;;;5.30;2.90;;;12.90;99.90;;;;;;5021600;28;20320;-66
2023/05/20 00:39:52;;;;;;;3.53;3.00;;;12.90;99.90;;;;;;5022393;28;20290;-66
2023/05/20 00:42:22;;;;;;;3.60;3.30;;;12.80;99.90;;;;;;5019508;28;20593;-71
2023/05/20 00:44:48;;;;;;;3.03;2.73;;;12.80;99.90;;;;;;5037905;28;20206;-67
2023/05/20 00:47:27;;;;;;;3.07;2.80;;;12.60;99.90;;;;;;5038082;28;20240;-66
2023/05/20 00:49:53;;;;;;;3.03;2.73;;;12.60;99.90;;;;;;5035608;28;20235;-66
2023/05/20 00:52:19;;;;;;;2.97;2.53;;;12.60;99.90;;;;;;5026430;28;20230;-68
2023/05/20 00:54:45;;;;;;;7.33;3.23;;;12.60;99.90;;;;;;5026314;28;20549;-67
2023/05/20 00:57:11;;;;;;;4.57;2.90;;;12.40;99.90;;;;;;5034673;28;20286;-71
2023/05/20 00:59:37;;;;;;;5.10;3.47;;;12.40;99.90;;;;;;5027112;28;20206;-72
2023/05/20 01:02:03;;;;;;;4.30;3.17;;;12.40;99.90;;;;;;5021717;28;20289;-72
2023/05/20 01:04:29;;;;;;;5.20;3.27;;;12.50;99.90;;;;;;5029414;28;20310;-67
2023/05/20 01:06:56;;;;;;;4.53;3.33;;;12.50;99.90;;;;;;5026054;28;20217;-67
2023/05/20 01:09:22;;;;;;;4.97;3.70;;;12.50;99.90;;;;;;5033697;28;20198;-68
2023/05/20 01:11:55;;;;;;;4.37;3.13;;;12.50;99.90;;;;;;5036821;28;20198;-68
2023/05/20 01:14:23;;;;;;;3.30;3.00;;;12.50;99.90;;;;;;5037779;28;20571;-69
2023/05/20 01:16:50;;;;;;;3.83;3.37;;;12.60;99.90;;;;;;5036061;28;20208;-68
2023/05/20 01:19:34;;;;;;;5.50;3.03;;;12.50;99.90;;;;;;5024085;28;20230;-68
2023/05/20 01:22:02;;;;;;;3.97;3.20;;;12.30;99.90;;;;;;5023327;28;20197;-67
2023/05/20 01:24:27;;;;;;;5.07;3.13;;;12.30;99.90;;;;;;5027496;28;20200;-67
2023/05/20 01:26:53;;;;;;;4.27;3.70;;;12.30;99.90;;;;;;5025661;28;20201;-67
2023/05/20 01:29:18;;;;;;;5.73;3.73;;;12.30;99.90;;;;;;5026921;28;20196;-67
2023/05/20 01:31:46;;;;;;;6.27;3.90;;;12.30;99.90;;;;;;5030824;28;20205;-67
2023/05/20 01:34:12;;;;;;;6.47;3.93;;;12.30;99.90;;;;;;5026951;28;20321;-66
2023/05/20 01:36:39;;;;;;;4.07;3.37;;;12.20;99.90;;;;;;5026809;28;20246;-67
2023/05/20 01:39:05;;;;;;;3.80;3.20;;;12.10;99.90;;;;;;5027033;28;20906;-67
2023/05/20 01:41:34;;;;;;;6.60;3.40;;;12.10;99.90;;;;;;5026366;28;20197;-67
2023/05/20 01:44:00;;;;;;;3.80;3.33;;;12.10;99.90;;;;;;5028075;28;21448;-67
2023/05/20 01:46:26;;;;;;;6.20;3.90;;;12.00;99.90;;;;;;5027303;28;20202;-67
2023/05/20 01:48:51;;;;;;;3.50;3.20;;;12.00;99.90;;;;;;5027220;28;20224;-68
2023/05/20 01:51:17;;;;;;;6.97;3.03;;;11.90;99.90;;;;;;5025052;28;20232;-68
2023/05/20 01:53:43;;;;;;;4.37;3.13;;;11.70;99.90;;;;;;5025307;28;20204;-67
2023/05/20 01:56:08;;;;;;;5.23;3.73;;;11.70;99.90;;;;;;5026485;28;20700;-67
2023/05/20 01:58:34;;;;;;;4.67;3.40;;;11.90;99.90;;;;;;5026600;28;21476;-67
2023/05/20 02:00:59;;;;;;;4.90;3.97;;;11.80;99.90;;;;;;5026352;28;20204;-67
2023/05/20 02:03:25;;;;;;;6.27;3.77;;;11.70;99.90;;;;;;5030256;28;20202;-67
2023/05/20 02:05:50;;;;;;;3.57;3.13;;;11.70;99.90;;;;;;5022453;28;20225;-67
2023/05/20 02:08:16;;;;;;;4.83;3.30;;;11.60;99.90;;;;;;5029451;28;20300;-67
2023/05/20 02:10:41;;;;;;;4.23;3.30;;;11.70;99.90;;;;;;5025677;28;20194;-67
2023/05/20 02:13:08;;;;;;;4.93;3.30;;;11.70;99.90;;;;;;5024698;28;20913;-68
2023/05/20 02:15:33;;;;;;;3.90;3.00;;;11.60;99.90;;;;;;5026247;28;20197;-67
2023/05/20 02:17:59;;;;;;;3.40;2.80;;;11.60;99.90;;;;;;5026484;28;20217;-67
2023/05/20 02:20:24;;;;;;;2.97;2.77;;;11.50;99.90;;;;;;5026290;28;20558;-67
2023/05/20 02:22:50;;;;;;;3.70;3.10;;;11.40;99.90;;;;;;5025961;28;20844;-66
2023/05/20 02:25:15;;;;;;;6.47;3.83;;;11.30;99.90;;;;;;5028833;28;20198;-69
2023/05/20 02:27:41;;;;;;;4.97;3.23;;;11.30;99.90;;;;;;5017576;28;20248;-67
2023/05/20 02:30:07;;;;;;;4.83;3.60;;;11.40;99.90;;;;;;5031057;28;20575;-66
2023/05/20 02:32:33;;;;;;;4.07;3.37;;;11.40;99.90;;;;;;5031311;28;20195;-66
2023/05/20 02:34:59;;;;;;;4.33;3.33;;;11.30;99.90;;;;;;5029165;28;20216;-66
2023/05/20 02:37:24;;;;;;;4.07;3.77;;;11.20;99.90;;;;;;5025679;28;20279;-66
2023/05/20 02:39:50;;;;;;;4.27;3.80;;;11.20;99.90;;;;;;5023597;28;20207;-67
2023/05/20 02:42:15;;;;;;;7.93;4.07;;;11.10;99.90;;;;;;5030496;28;20221;-66
2023/05/20 02:44:41;;;;;;;4.30;3.70;;;11.30;99.90;;;;;;5025792;28;20244;-66
2023/05/20 02:47:06;;;;;;;4.93;3.37;;;11.50;99.90;;;;;;5026291;28;20204;-68
2023/05/20 02:49:32;;;;;;;6.93;4.47;;;11.40;99.90;;;;;;5025225;28;20201;-65
2023/05/20 02:51:57;;;;;;;5.77;3.23;;;11.40;99.90;;;;;;5026189;28;20617;-67
2023/05/20 02:54:23;;;;;;;4.20;3.80;;;11.30;99.90;;;;;;5023785;28;20759;-68
2023/05/20 02:56:48;;;;;;;4.23;3.93;;;11.30;99.90;;;;;;5026598;28;20214;-67
2023/05/20 02:59:14;;;;;;;4.37;3.47;;;11.30;99.90;;;;;;5026599;28;20533;-67
2023/05/20 03:01:39;;;;;;;7.10;4.07;;;11.10;99.90;;;;;;5026387;28;20239;-66
2023/05/20 03:04:05;;;;;;;5.07;3.60;;;11.00;99.90;;;;;;5026092;28;20199;-67
2023/05/20 03:06:31;;;;;;;3.67;3.20;;;11.00;99.90;;;;;;5024000;28;20206;-67
2023/05/20 03:08:57;;;;;;;5.83;3.70;;;11.10;99.90;;;;;;5026001;28;20758;-67
2023/05/20 03:11:22;;;;;;;6.93;3.97;;;11.10;99.90;;;;;;5025378;28;20209;-67
2023/05/20 03:13:48;;;;;;;6.43;3.87;;;11.10;99.90;;;;;;5025064;28;20786;-67
2023/05/20 03:16:15;;;;;;;4.70;3.53;;;11.20;99.90;;;;;;5025578;28;20217;-67
2023/05/20 03:18:41;;;;;;;5.33;3.73;;;11.30;99.90;;;;;;5028503;28;20201;-66
2023/05/20 03:21:07;;;;;;;9.23;4.10;;;11.20;99.90;;;;;;5018026;28;20474;-67
2023/05/20 03:23:33;;;;;;;4.07;3.50;;;11.30;99.90;;;;;;5027162;28;20353;-67
2023/05/20 03:25:59;;;;;;;9.73;4.10;;;11.20;99.90;;;;;;5030135;28;20275;-68
2023/05/20 03:28:24;;;;;;;7.13;3.60;;;11.10;99.90;;;;;;5033764;28;20316;-66
2023/05/20 03:30:50;;;;;;;6.20;3.87;;;11.20;99.90;;;;;;5029048;28;20668;-67
2023/05/20 03:33:15;;;;;;;6.80;3.47;;;11.40;99.90;;;;;;5027761;28;20243;-67
2023/05/20 03:35:41;;;;;;;3.97;3.57;;;11.40;99.90;;;;;;5030172;28;20656;-67
2023/05/20 03:38:06;;;;;;;6.93;3.43;;;11.50;99.90;;;;;;5033803;28;20285;-67
2023/05/20 03:40:32;;;;;;;6.27;4.00;;;11.30;99.90;;;;;;5038995;28;20187;-67
2023/05/20 03:42:57;;;;;;;7.97;4.20;;;11.30;99.90;;;;;;5036870;28;20198;-67
2023/05/20 03:45:23;;;;;;;7.00;3.27;;;11.30;99.90;;;;;;5034065;28;20225;-67
2023/05/20 03:47:49;;;;;;;5.10;3.63;;;11.40;99.90;;;;;;5034030;28;20205;-71
2023/05/20 03:50:14;;;;;;;4.20;3.73;;;11.10;99.90;;;;;;5039980;28;20266;-67
2023/05/20 03:52:40;;;;;;;4.83;4.00;;;11.10;99.90;;;;;;5039169;28;20200;-65
2023/05/20 03:55:05;;;;;;;6.57;3.83;;;11.30;99.90;;;;;;5039201;28;20202;-66
2023/05/20 03:57:31;;;;;;;4.23;3.13;;;11.30;99.90;;;;;;5036688;28;20268;-67
2023/05/20 03:59:57;;;;;;;4.87;3.70;;;11.40;99.90;;;;;;5037580;28;20569;-67
2023/05/20 04:02:22;;;;;;;5.83;3.87;;;11.30;99.90;;;;;;5034387;28;20554;-67
2023/05/20 04:04:51;;;;;;;6.33;3.70;;;11.20;99.90;;;;;;5038980;28;20726;-66
2023/05/20 04:07:17;;;;;;;4.00;3.37;;;11.10;99.90;;;;;;5038913;28;20777;-66
2023/05/20 04:09:42;;;;;;;6.73;3.87;;;11.40;99.90;;;;;;5036867;28;20197;-66
2023/05/20 04:12:08;;;;;;;6.30;3.83;;;11.50;99.90;;;;;;5034284;28;20282;-66
2023/05/20 04:14:34;;;;;;;6.40;3.97;;;11.40;99.90;;;;;;5032026;28;20208;-65
2023/05/20 04:17:02;;;;;;;7.37;3.83;;;11.30;99.90;;;;;;5035277;28;20252;-67
2023/05/20 04:19:28;;;;;;;7.70;3.57;;;11.30;99.90;;;;;;5035125;28;20209;-66
2023/05/20 04:21:55;;;;;;;6.83;4.10;;;11.20;99.90;;;;;;5028364;28;20209;-67
2023/05/20 04:24:24;;;;;;;9.33;3.70;;;11.30;99.90;;;;;;5022940;28;20203;-67
2023/05/20 04:26:50;;;;;;;4.57;3.70;;;11.30;99.90;;;;;;5028244;28;20196;-67
2023/05/20 04:29:17;;;;;;;5.03;3.97;;;11.40;99.90;;;;;;5031230;28;20201;-67
2023/05/20 04:31:44;;;;;;;7.57;4.17;;;11.40;99.90;;;;;;5026391;28;20195;-67
2023/05/20 04:34:09;;;;;;;4.67;3.50;;;11.30;99.90;;;;;;5024230;28;20692;-67
2023/05/20 04:36:37;;;;;;;6.17;3.77;;;11.40;99.90;;;;;;5028203;28;20239;-67
2023/05/20 04:39:03;;;;;;;6.67;3.87;;;11.50;99.90;;;;;;5030171;28;20253;-67
2023/05/20 04:41:30;;;;;;;5.70;3.80;;;11.50;99.90;;;;;;5028002;28;20945;-67
2023/05/20 04:43:59;;;;;;;7.00;3.97;;;11.40;99.90;;;;;;5025083;28;20197;-68
2023/05/20 04:46:25;;;;;;;6.37;3.90;;;11.40;99.90;;;;;;5027600;28;20726;-66
2023/05/20 04:48:51;;;;;;;8.47;4.03;;;11.40;99.90;;;;;;5029640;28;20281;-66
2023/05/20 04:51:17;;;;;;;5.90;4.37;;;11.50;99.90;;;;;;5026227;28;20908;-67
2023/05/20 04:53:43;;;;;;;11.33;4.70;;;11.40;99.90;;;;;;5027687;28;20203;-67
2023/05/20 04:56:09;;;;;;;9.70;4.10;;;11.30;99.90;;;;;;5025322;28;20202;-66
2023/05/20 04:58:35;;;;;;;6.53;4.20;;;11.40;99.90;;;;;;5028408;28;20206;-67
2023/05/20 05:01:01;;;;;;;6.10;3.50;;;11.60;99.90;;;;;;5028272;28;20210;-67
2023/05/20 05:03:26;;;;;;;6.30;4.57;;;11.60;99.90;;;;;;5032809;28;20205;-67
2023/05/20 05:05:55;;;;;;;8.73;4.10;;;11.50;99.90;;;;;;5026518;28;20196;-67
2023/05/20 05:08:21;;;;;;;5.50;4.07;;;11.50;99.90;;;;;;5026227;28;20564;-68
2023/05/20 05:10:46;;;;;;;6.20;4.27;;;11.30;99.90;;;;;;5026620;28;20201;-67
2023/05/20 05:13:12;;;;;;;3.87;3.47;;;11.50;99.90;;;;;;5027619;28;20994;-66
2023/05/20 05:15:37;;;;;;;5.60;3.53;;;11.50;99.90;;;;;;5030107;28;20193;-66
2023/05/20 05:18:03;;;;;;;7.80;4.13;;;11.40;99.90;;;;;;5023723;28;20332;-65
2023/05/20 05:20:28;;;;;;;7.67;3.73;;;11.50;99.90;;;;;;5029218;28;20231;-66
2023/05/20 05:22:54;;;;;;;4.47;3.47;;;11.60;99.90;;;;;;5027022;28;20211;-66
2023/05/20 05:25:19;;;;;;;4.37;3.97;;;11.70;99.90;;;;;;5025469;28;20481;-67
2023/05/20 05:27:48;;;;;;;7.77;3.87;;;11.80;99.90;;;;;;5027531;28;20232;-66
2023/05/20 05:30:13;;;;;;;7.13;4.47;;;11.90;99.90;;;;;;5027335;28;20207;-66
2023/05/20 05:32:38;;;;;;;7.30;4.27;;;12.00;99.90;;;;;;5025039;28;20208;-67
2023/05/20 05:35:04;;;;;;;7.90;4.90;;;12.00;99.90;;;;;;5027015;28;20311;-66
2023/05/20 05:37:30;;;;;;;7.47;4.23;;;12.00;99.90;;;;;;5026539;28;20585;-67
2023/05/20 05:39:55;;;;;;;9.07;4.67;;;12.00;99.90;;;;;;5026889;28;20248;-66
2023/05/20 05:42:21;;;;;;;5.57;4.50;;;12.00;99.90;;;;;;5029526;28;20614;-65
2023/05/20 05:44:47;;;;;;;6.87;4.07;;;12.10;99.90;;;;;;5025424;28;20208;-65
2023/05/20 05:47:12;;;;;;;8.23;4.77;;;12.10;99.90;;;;;;5030224;28;20315;-65
2023/05/20 05:49:38;;;;;;;6.07;4.43;;;12.00;99.90;;;;;;5029765;28;20293;-65
2023/05/20 05:52:04;;;;;;;5.23;4.33;;;11.90;99.90;;;;;;5024391;28;20236;-66
2023/05/20 05:54:29;;;;;;;6.63;4.90;;;12.10;99.90;;;;;;5026919;28;20256;-66
2023/05/20 05:56:57;;;;;;;4.57;4.10;;;12.10;99.90;;;;;;5026862;28;20216;-66
2023/05/20 05:59:23;;;;;;;5.07;3.87;;;12.10;99.90;;;;;;5024086;28;20202;-67
2023/05/20 06:01:48;;;;;;;5.20;4.33;;;12.20;99.90;;;;;;5027597;28;20213;-66
2023/05/20 06:04:14;;;;;;;4.47;4.07;;;12.40;99.90;;;;;;5024834;28;20951;-67
2023/05/20 06:06:40;;;;;;;8.87;4.73;;;12.40;99.90;;;;;;5026755;28;20244;-66
2023/05/20 06:09:06;;;;;;;9.43;4.50;;;12.20;99.90;;;;;;5024403;28;20260;-67
2023/05/20 06:11:31;;;;;;;5.70;4.63;;;12.20;99.90;;;;;;5030439;28;20237;-67
2023/05/20 06:13:57;;;;;;;6.77;4.93;;;12.20;99.90;;;;;;5023032;28;20569;-67
2023/05/20 06:16:23;;;;;;;10.40;4.53;;;12.20;99.90;;;;;;5026925;28;20215;-67
2023/05/20 06:18:49;;;;;;;5.00;4.37;;;12.30;99.90;;;;;;5026953;28;20449;-71
2023/05/20 06:21:15;;;;;;;10.00;5.23;;;12.20;99.90;;;;;;5026409;28;20723;-65
2023/05/20 06:23:41;;;;;;;7.77;5.27;;;12.40;99.90;;;;;;5024708;28;20284;-66
2023/05/20 06:26:06;;;;;;;8.80;4.53;;;12.50;99.90;;;;;;5024878;28;20455;-66
2023/05/20 06:28:32;;;;;;;6.67;5.07;;;12.70;99.90;;;;;;5025995;28;20668;-66
2023/05/20 06:30:57;;;;;;;7.77;4.50;;;12.60;99.90;;;;;;5021074;28;20313;-66
2023/05/20 06:33:27;;;;;;;6.27;4.87;;;12.50;99.90;;;;;;5025986;28;20210;-67
2023/05/20 06:35:56;;;;;;;6.27;4.43;;;12.50;99.90;;;;;;5017925;28;20229;-66
2023/05/20 06:38:22;;;;;;;7.57;5.40;;;12.50;99.90;;;;;;5026590;28;20267;-65
2023/05/20 06:40:48;;;;;;;9.73;5.53;;;12.50;99.90;;;;;;5026487;28;20202;-70
2023/05/20 06:43:14;;;;;;;6.13;4.33;;;12.60;99.90;;;;;;5019475;28;20667;-67
2023/05/20 06:45:40;;;;;;;5.93;5.37;;;12.50;99.90;;;;;;5016062;28;20199;-67
2023/05/20 06:48:06;;;;;;;4.87;4.27;;;12.40;99.90;;;;;;5019382;28;20211;-67
2023/05/20 06:50:32;;;;;;;6.10;4.87;;;12.50;99.90;;;;;;5019734;28;20207;-66
2023/05/20 06:52:57;;;;;;;7.47;4.87;;;12.70;99.90;;;;;;5021444;28;20206;-68
2023/05/20 06:55:23;;;;;;;6.27;5.20;;;12.60;99.90;;;;;;5017928;28;20590;-67
2023/05/20 06:57:48;;;;;;;8.43;6.00;;;12.60;99.90;;;;;;5024183;28;20299;-65
2023/05/20 07:00:14;;;;;;;7.60;5.10;;;12.80;99.90;;;;;;5027298;28;20269;-65
2023/05/20 07:02:41;;;;;;;7.40;5.00;;;12.80;99.90;;;;;;5030342;28;21087;-65
2023/05/20 07:05:07;;;;;;;7.83;5.23;;;13.00;99.90;;;;;;5026352;28;20795;-65
2023/05/20 07:07:33;;;;;;;11.23;5.20;;;13.00;99.90;;;;;;5021499;28;20839;-66
2023/05/20 07:09:58;;;;;;;6.03;4.77;;;13.00;99.90;;;;;;5025587;28;20200;-66
2023/05/20 07:12:24;;;;;;;6.03;4.37;;;12.90;99.90;;;;;;5024026;28;20205;-66
2023/05/20 07:14:49;;;;;;;7.27;5.33;;;13.00;99.90;;;;;;5019740;28;20206;-64
2023/05/20 07:17:15;;;;;;;6.23;4.80;;;13.00;99.90;;;;;;5023987;28;20233;-66
2023/05/20 07:19:41;;;;;;;6.77;5.70;;;13.00;99.90;;;;;;5020264;28;20699;-65
2023/05/20 07:22:06;;;;;;;8.73;5.60;;;12.90;99.90;;;;;;5023385;28;20223;-66
2023/05/20 07:24:32;;;;;;;4.37;4.07;;;13.00;99.90;;;;;;5025001;28;20204;-66
2023/05/20 07:26:58;;;;;;;7.77;5.37;;;13.10;99.90;;;;;;5025569;28;20199;-66
2023/05/20 07:29:23;;;;;;;7.17;5.03;;;13.40;99.90;;;;;;5023369;28;20346;-66
2023/05/20 07:31:49;;;;;;;5.43;4.80;;;13.50;99.90;;;;;;5019176;28;20203;-66
2023/05/20 07:34:15;;;;;;;6.90;5.50;;;13.40;99.90;;;;;;5025207;28;20207;-76
2023/05/20 07:36:40;;;;;;;6.77;5.10;;;13.50;99.90;;;;;;5024843;28;20254;-75
2023/05/20 07:39:07;;;;;;;8.53;5.13;;;13.40;99.90;;;;;;5026945;28;20248;-77
2023/05/20 07:41:33;;;;;;;7.73;4.87;;;13.50;99.90;;;;;;5023701;28;20195;-77
2023/05/20 07:44:01;;;;;;;9.43;5.77;;;13.40;99.90;;;;;;5025884;28;20204;-76
2023/05/20 07:46:26;;;;;;;6.77;4.93;;;13.50;99.90;;;;;;5026558;28;20207;-77
2023/05/20 07:48:52;;;;;;;6.80;4.90;;;13.60;99.90;;;;;;5029461;28;20665;-76
2023/05/20 07:51:18;;;;;;;6.50;5.10;;;13.60;99.90;;;;;;5032539;28;20230;-76
2023/05/20 07:53:43;;;;;;;8.50;5.27;;;13.80;99.90;;;;;;5030240;28;20203;-75
2023/05/20 07:56:09;;;;;;;7.13;5.37;;;14.00;99.90;;;;;;5028211;28;20222;-76
2023/05/20 07:58:34;;;;;;;8.30;5.50;;;14.20;99.90;;;;;;5026619;28;20230;-76
2023/05/20 08:01:00;;;;;;;5.77;5.10;;;14.30;99.90;;;;;;5049405;28;20251;-83
2023/05/20 08:03:26;;;;;;;5.80;5.20;;;14.40;99.90;;;;;;5029256;28;20202;-73
2023/05/20 08:05:52;;;;;;;8.43;4.73;;;14.40;99.90;;;;;;5029971;28;20196;-71
2023/05/20 08:08:17;;;;;;;6.10;4.83;;;14.30;99.90;;;;;;5033904;28;20751;-75
2023/05/20 08:10:43;;;;;;;7.83;4.77;;;14.40;99.90;;;;;;5042019;28;20199;-75
2023/05/20 08:13:08;;;;;;;6.87;5.90;;;14.50;99.90;;;;;;5036039;28;20681;-76
2023/05/20 08:15:35;;;;;;;6.73;5.23;;;14.60;99.90;;;;;;5025141;28;20194;-75
2023/05/20 08:18:00;;;;;;;6.87;5.30;;;14.40;99.90;;;;;;5029364;28;20265;-76
2023/05/20 08:20:26;;;;;;;7.53;4.93;;;14.30;99.90;;;;;;5029092;28;20199;-76
2023/05/20 08:22:52;;;;;;;6.50;5.47;;;14.50;99.90;;;;;;5037477;28;20203;-75
2023/05/20 08:25:17;;;;;;;7.77;5.40;;;14.50;99.90;;;;;;5039911;28;20194;-77
2023/05/20 08:27:43;;;;;;;6.63;5.20;;;14.50;99.90;;;;;;5037295;28;20191;-76
2023/05/20 08:30:09;;;;;;;6.83;5.47;;;14.40;99.90;;;;;;5038893;28;20202;-76
2023/05/20 08:32:35;;;;;;;9.43;5.00;;;14.70;99.90;;;;;;5034963;28;20206;-75
2023/05/20 08:35:01;;;;;;;6.63;4.87;;;14.80;99.90;;;;;;5035917;28;20204;-76
2023/05/20 08:37:28;;;;;;;6.50;5.23;;;14.80;99.90;;;;;;5026479;28;20699;-77
2023/05/20 08:39:54;;;;;;;5.87;4.83;;;14.90;99.90;;;;;;5030082;28;20542;-74
2023/05/20 08:42:23;;;;;;;8.23;6.57;;;15.00;99.90;;;;;;5026505;28;20199;-75
2023/05/20 08:44:51;;;;;;;8.47;5.37;;;14.90;99.90;;;;;;5019293;28;20234;-74
2023/05/20 08:47:18;;;;;;;5.73;4.90;;;15.20;99.90;;;;;;5025887;28;20227;-76
2023/05/20 08:49:44;;;;;;;8.17;5.17;;;15.20;99.90;;;;;;5024052;28;20199;-76
2023/05/20 08:52:12;;;;;;;6.77;4.70;;;15.10;99.90;;;;;;5026264;28;20231;-83
2023/05/20 08:54:46;;;;;;;6.40;5.00;;;15.40;99.90;;;;;;5029560;28;20290;-74
2023/05/20 08:57:12;;;;;;;5.77;4.70;;;15.50;99.90;;;;;;5034001;28;20306;-76
2023/05/20 08:59:41;;;;;;;6.77;4.87;;;15.50;99.90;;;;;;5028275;28;20203;-76
2023/05/20 09:02:08;;;;;;;8.87;5.23;;;15.60;99.90;;;;;;5026763;28;20226;-76
2023/05/20 09:04:34;;;;;;;7.70;5.23;;;15.40;99.90;;;;;;5029659;28;20872;-76
2023/05/20 09:07:00;;;;;;;5.20;4.43;;;15.30;99.90;;;;;;5030058;28;20199;-76
2023/05/20 09:09:26;;;;;;;5.50;4.83;;;15.40;99.90;;;;;;5026350;28;20207;-76
2023/05/20 09:11:51;;;;;;;6.83;5.57;;;15.60;99.90;;;;;;5027299;28;20680;-77
2023/05/20 09:14:25;;;;;;;6.13;4.40;;;15.60;99.90;;;;;;5029841;28;20590;-77
2023/05/20 09:16:52;;;;;;;5.50;5.00;;;15.40;99.90;;;;;;5021590;28;20210;-75
2023/05/20 09:19:20;;;;;;;7.50;5.13;;;15.10;99.90;;;;;;5026887;28;20201;-74
2023/05/20 09:21:46;;;;;;;7.37;5.03;;;15.20;99.90;;;;;;5022777;28;20196;-77
2023/05/20 09:24:12;;;;;;;7.00;5.60;;;15.30;99.90;;;;;;5026356;28;20259;-74
2023/05/20 09:26:37;;;;;;;5.77;4.47;;;15.30;99.90;;;;;;5026462;28;20229;-77
2023/05/20 09:29:03;;;;;;;7.47;5.37;;;15.30;99.90;;;;;;5027798;28;20700;-84
2023/05/20 09:31:33;;;;;;;4.97;4.30;;;15.40;99.90;;;;;;5034103;28;20623;-83
2023/05/20 09:34:02;;;;;;;5.83;5.23;;;15.40;99.90;;;;;;5026802;28;20214;-83
2023/05/20 09:36:30;;;;;;;5.73;4.93;;;15.40;99.90;;;;;;5025870;28;20233;-81
2023/05/20 09:39:02;;;;;;;9.87;5.40;;;15.60;99.90;;;;;;5026062;28;20673;-76
2023/05/20 09:41:32;;;;;;;5.70;4.63;;;15.80;99.90;;;;;;5025115;28;20207;-73
2023/05/20 09:43:59;;;;;;;5.50;4.73;;;15.80;99.90;;;;;;5029433;28;20199;-82
2023/05/20 09:46:26;;;;;;;8.90;5.37;;;15.70;99.90;;;;;;5026228;28;20418;-80
2023/05/20 09:48:54;;;;;;;8.77;5.40;;;15.70;99.90;;;;;;5026526;28;20191;-78
2023/05/20 09:51:22;;;;;;;5.47;4.50;;;15.70;99.90;;;;;;5029319;28;20195;-75
2023/05/20 09:53:47;;;;;;;5.23;4.73;;;15.70;99.90;;;;;;5029099;28;20266;-77
2023/05/20 09:56:13;;;;;;;6.87;5.33;;;15.80;99.90;;;;;;5026043;28;20350;-74
2023/05/20 09:58:40;;;;;;;7.67;5.90;;;15.80;99.90;;;;;;5025076;28;20290;-76
2023/05/20 10:01:06;;;;;;;6.20;4.93;;;16.10;99.90;;;;;;5028120;28;20211;-75
2023/05/20 10:03:32;;;;;;;6.30;5.67;;;16.00;99.90;;;;;;5025538;28;20253;-75
2023/05/20 10:06:20;;;;;;;6.43;5.73;;;16.10;99.90;;;;;;5027437;28;20199;-75
2023/05/20 10:09:18;;;;;;;9.03;6.67;;;16.10;99.90;;;;;;5025640;28;20199;-77
2023/05/20 10:11:51;;;;;;;14.73;6.50;;;15.90;99.90;;;;;;5021575;28;20199;-77
2023/05/20 10:14:42;;;;;;;7.73;6.70;;;15.80;99.90;;;;;;5029843;28;20202;-76
2023/05/20 10:17:19;;;;;;;11.17;7.60;;;15.90;99.90;;;;;;5031836;28;20218;-78
2023/05/20 10:19:44;;;;;;;8.17;6.37;;;15.90;99.90;;;;;;5035124;28;20560;-75
2023/05/20 10:22:10;;;;;;;9.03;6.70;;;16.00;99.90;;;;;;5034748;28;20207;-75
2023/05/20 10:24:37;;;;;;;7.50;6.80;;;16.20;99.90;;;;;;5032605;28;20199;-76
2023/05/20 10:27:06;;;;;;;11.67;5.93;;;16.20;99.90;;;;;;5034255;28;20210;-77
2023/05/20 10:29:42;;;;;;;8.83;6.17;;;16.10;99.90;;;;;;5036051;28;20286;-76
2023/05/20 10:32:07;;;;;;;9.27;6.77;;;15.90;99.90;;;;;;5036383;28;20613;-77
2023/05/20 10:34:45;;;;;;;9.20;7.17;;;16.00;99.90;;;;;;5035798;28;20213;-77
2023/05/20 10:37:22;;;;;;;8.77;6.70;;;16.10;99.90;;;;;;5024151;28;20709;-77
2023/05/20 10:39:47;;;;;;;9.07;6.83;;;16.10;99.90;;;;;;5031209;28;20267;-77
2023/05/20 10:42:13;;;;;;;8.50;7.60;;;15.90;99.90;;;;;;5034039;28;20211;-77
2023/05/20 10:44:46;;;;;;;9.40;6.93;;;16.00;99.90;;;;;;5036381;28;20270;-77
2023/05/20 10:47:12;;;;;;;7.87;6.87;;;16.20;99.90;;;;;;5036029;28;20277;-78
2023/05/20 10:49:45;;;;;;;7.00;6.10;;;16.30;99.90;;;;;;5036265;28;20748;-77
2023/05/20 10:52:12;;;;;;;11.73;7.30;;;16.60;99.90;;;;;;5036300;28;20215;-77
2023/05/20 10:54:58;;;;;;;8.27;7.13;;;16.90;99.90;;;;;;5036304;28;20341;-77
2023/05/20 10:57:26;;;;;;;9.80;7.20;;;16.80;99.90;;;;;;5027344;28;20587;-78
2023/05/20 10:59:51;;;;;;;7.17;6.37;;;17.00;99.90;;;;;;5030090;28;20203;-78
2023/05/20 11:02:18;;;;;;;7.73;6.77;;;17.20;99.90;;;;;;5032507;28;20194;-78
2023/05/20 11:04:45;;;;;;;7.80;6.80;;;17.40;99.90;;;;;;5033929;28;20868;-77
2023/05/20 11:07:11;;;;;;;18.73;14.47;;;17.50;99.90;;;;;;5034092;28;20213;-77
2023/05/20 11:09:37;;;;;;;8.20;5.93;;;17.30;99.90;;;;;;5035509;28;20199;-77
2023/05/20 11:12:02;;;;;;;9.07;6.50;;;17.50;99.90;;;;;;5035839;28;20657;-77
2023/05/20 11:14:28;;;;;;;7.13;6.47;;;17.60;99.90;;;;;;5035863;28;20605;-76
2023/05/20 11:16:58;;;;;;;7.43;6.60;;;17.50;99.90;;;;;;5035563;28;20243;-78
2023/05/20 11:19:27;;;;;;;11.20;7.50;;;17.40;99.90;;;;;;5035135;28;20195;-77
2023/05/20 11:21:53;;;;;;;8.43;7.53;;;17.30;99.90;;;;;;5035282;28;20219;-79
2023/05/20 11:24:25;;;;;;;6.53;5.73;;;17.50;99.90;;;;;;5032207;28;20231;-76
2023/05/20 11:26:51;;;;;;;6.83;6.07;;;17.50;99.90;;;;;;5030646;28;20235;-74
2023/05/20 11:29:18;;;;;;;9.87;7.00;;;17.60;99.90;;;;;;5030478;28;20764;-76
2023/05/20 11:31:44;;;;;;;7.63;6.77;;;17.70;99.90;;;;;;5035268;28;20204;-77
2023/05/20 11:34:10;;;;;;;9.23;6.87;;;17.70;99.90;;;;;;5035158;28;20212;-78
2023/05/20 11:36:40;;;;;;;10.00;7.27;;;18.00;99.90;;;;;;5034170;28;20240;-77
2023/05/20 11:39:10;;;;;;;7.50;6.70;;;18.00;99.90;;;;;;5035839;28;20203;-77
2023/05/20 11:41:35;;;;;;;12.87;6.50;;;18.30;99.90;;;;;;5035474;28;20209;-77
2023/05/20 11:44:01;;;;;;;6.73;6.03;;;18.90;99.90;;;;;;5031815;28;20204;-77
2023/05/20 11:46:27;;;;;;;7.87;6.20;;;19.10;99.90;;;;;;5034347;28;20200;-78
2023/05/20 11:48:56;;;;;;;7.73;5.90;;;19.40;99.90;;;;;;5037110;28;20282;-75
2023/05/20 11:51:29;;;;;;;7.67;6.93;;;19.40;99.90;;;;;;5034767;28;20751;-75
2023/05/20 11:54:01;;;;;;;6.50;5.90;;;19.50;99.90;;;;;;5034639;28;20208;-75
2023/05/20 11:56:32;;;;;;;7.50;6.30;;;19.60;99.90;;;;;;5023482;28;20245;-77
2023/05/20 11:59:01;;;;;;;9.67;6.53;;;19.00;99.90;;;;;;5036089;28;20436;-76
2023/05/20 12:01:30;;;;;;;6.87;6.27;;;19.10;99.90;;;;;;5033511;28;20233;-77
2023/05/20 12:03:55;;;;;;;7.10;6.40;;;19.40;99.90;;;;;;5036486;28;20203;-76
2023/05/20 12:06:21;;;;;;;9.27;6.83;;;19.60;99.90;;;;;;5038784;28;20207;-77
2023/05/20 12:08:46;;;;;;;7.67;6.10;;;19.90;99.90;;;;;;5033988;28;20204;-76
2023/05/20 12:11:12;;;;;;;7.67;6.53;;;20.10;99.50;;;;;;5038564;28;20468;-76
2023/05/20 12:13:38;;;;;;;7.60;6.33;;;20.00;99.90;;;;;;5038192;28;20192;-76
2023/05/20 12:16:04;;;;;;;7.57;6.70;;;20.10;99.90;;;;;;5033566;28;20655;-76
2023/05/20 12:18:31;;;;;;;7.17;6.47;;;19.90;99.90;;;;;;5032656;28;20691;-76
2023/05/20 12:21:00;;;;;;;8.13;7.30;;;20.10;99.80;;;;;;5033488;28;20198;-76
2023/05/20 12:23:25;;;;;;;8.50;7.50;;;20.10;99.80;;;;;;5036798;28;20351;-76
2023/05/20 12:25:51;;;;;;;8.37;6.40;;;20.30;99.60;;;;;;5038594;28;20201;-80
2023/05/20 12:28:17;;;;;;;7.30;6.57;;;20.70;99.90;;;;;;5037059;28;20204;-82
2023/05/20 12:30:42;;;;;;;9.87;7.13;;;20.60;99.80;;;;;;5034424;28;20893;-82
2023/05/20 12:33:08;;;;;;;8.03;7.23;;;20.70;99.00;;;;;;5033750;28;20218;-80
2023/05/20 12:35:42;;;;;;;8.00;6.83;;;20.50;98.80;;;;;;5033281;28;20773;-80
2023/05/20 12:38:08;;;;;;;7.93;7.03;;;20.50;98.80;;;;;;5032933;28;20715;-78
2023/05/20 12:40:35;;;;;;;6.83;5.93;;;20.10;98.70;;;;;;5036922;28;20216;-78
2023/05/20 12:43:01;;;;;;;7.57;6.40;;;20.00;99.90;;;;;;5033949;28;20246;-79